sensor_id;sensor_type;location;lat;lon;timestamp;P1;durP1;ratioP1;P2;durP2;ratioP2
11123;SDS011;5616;42.692;23.312;2023-08-17T00:02:15;10.83;;;6.63;;
11123;SDS011;5616;42.692;23.312;2023-08-17T00:04:42;9.27;;;6.90;;
11123;SDS011;5616;42.692;23.312;2023-08-17T00:07:09;8.90;;;6.97;;
11123;SDS011;5616;42.692;23.312;2023-08-17T00:09:36;13.40;;;7.10;;
11123;SDS011;5616;42.692;23.312;2023-08-17T00:12:03;11.00;;;7.00;;
11123;SDS011;5616;42.692;23.312;2023-08-17T00:14:30;7.30;;;6.30;;
11123;SDS011;5616;42.692;23.312;2023-08-17T00:16:57;8.97;;;6.30;;
11123;SDS011;5616;42.692;23.312;2023-08-17T00:19:25;8.97;;;6.07;;
11123;SDS011;5616;42.692;23.312;2023-08-17T00:21:53;8.83;;;6.20;;
11123;SDS011;5616;42.692;23.312;2023-08-17T00:24:20;9.83;;;6.33;;
11123;SDS011;5616;42.692;23.312;2023-08-17T00:26:47;7.87;;;6.33;;
11123;SDS011;5616;42.692;23.312;2023-08-17T00:29:14;10.27;;;6.20;;
11123;SDS011;5616;42.692;23.312;2023-08-17T00:31:42;9.47;;;6.37;;
11123;SDS011;5616;42.692;23.312;2023-08-17T00:34:09;19.70;;;6.70;;
11123;SDS011;5616;42.692;23.312;2023-08-17T00:36:37;12.00;;;6.13;;
11123;SDS011;5616;42.692;23.312;2023-08-17T00:39:04;8.30;;;6.07;;
11123;SDS011;5616;42.692;23.312;2023-08-17T00:41:31;7.70;;;5.90;;
11123;SDS011;5616;42.692;23.312;2023-08-17T00:43:59;9.37;;;5.27;;
11123;SDS011;5616;42.692;23.312;2023-08-17T00:46:26;13.53;;;5.90;;
11123;SDS011;5616;42.692;23.312;2023-08-17T00:48:53;6.53;;;5.27;;
11123;SDS011;5616;42.692;23.312;2023-08-17T00:51:21;11.23;;;5.77;;
11123;SDS011;5616;42.692;23.312;2023-08-17T00:53:51;11.13;;;5.77;;
11123;SDS011;5616;42.692;23.312;2023-08-17T00:56:19;7.53;;;5.37;;
11123;SDS011;5616;42.692;23.312;2023-08-17T00:58:48;8.70;;;5.13;;
11123;SDS011;5616;42.692;23.312;2023-08-17T01:01:16;6.87;;;5.23;;
11123;SDS011;5616;42.692;23.312;2023-08-17T01:03:43;6.87;;;5.10;;
11123;SDS011;5616;42.692;23.312;2023-08-17T01:06:10;7.10;;;4.57;;
11123;SDS011;5616;42.692;23.312;2023-08-17T01:08:37;7.37;;;4.80;;
11123;SDS011;5616;42.692;23.312;2023-08-17T01:11:08;8.87;;;4.70;;
11123;SDS011;5616;42.692;23.312;2023-08-17T01:13:44;9.43;;;5.07;;
11123;SDS011;5616;42.692;23.312;2023-08-17T01:16:20;8.10;;;4.80;;
11123;SDS011;5616;42.692;23.312;2023-08-17T01:18:50;9.70;;;4.80;;
11123;SDS011;5616;42.692;23.312;2023-08-17T01:21:18;5.50;;;4.60;;
11123;SDS011;5616;42.692;23.312;2023-08-17T01:23:50;9.60;;;4.40;;
11123;SDS011;5616;42.692;23.312;2023-08-17T01:26:17;6.23;;;4.80;;
11123;SDS011;5616;42.692;23.312;2023-08-17T01:28:44;7.60;;;5.17;;
11123;SDS011;5616;42.692;23.312;2023-08-17T01:31:14;9.80;;;4.57;;
11123;SDS011;5616;42.692;23.312;2023-08-17T01:33:47;9.57;;;4.07;;
11123;SDS011;5616;42.692;23.312;2023-08-17T01:36:20;5.73;;;4.50;;
11123;SDS011;5616;42.692;23.312;2023-08-17T01:38:53;7.70;;;4.97;;
11123;SDS011;5616;42.692;23.312;2023-08-17T01:41:23;5.00;;;4.27;;
11123;SDS011;5616;42.692;23.312;2023-08-17T01:43:53;8.87;;;4.60;;
11123;SDS011;5616;42.692;23.312;2023-08-17T01:46:21;8.50;;;5.07;;
11123;SDS011;5616;42.692;23.312;2023-08-17T01:48:48;9.30;;;4.80;;
11123;SDS011;5616;42.692;23.312;2023-08-17T01:51:16;8.20;;;4.50;;
11123;SDS011;5616;42.692;23.312;2023-08-17T01:53:45;8.07;;;4.60;;
11123;SDS011;5616;42.692;23.312;2023-08-17T01:56:14;5.47;;;4.40;;
11123;SDS011;5616;42.692;23.312;2023-08-17T01:58:40;8.10;;;4.43;;
11123;SDS011;5616;42.692;23.312;2023-08-17T02:01:07;8.57;;;4.40;;
11123;SDS011;5616;42.692;23.312;2023-08-17T02:03:34;7.75;;;4.63;;
11123;SDS011;5616;42.692;23.312;2023-08-17T02:06:01;7.40;;;4.43;;
11123;SDS011;5616;42.692;23.312;2023-08-17T02:08:28;6.13;;;4.10;;
11123;SDS011;5616;42.692;23.312;2023-08-17T02:10:55;12.27;;;4.50;;
11123;SDS011;5616;42.692;23.312;2023-08-17T02:13:24;8.90;;;3.93;;
11123;SDS011;5616;42.692;23.312;2023-08-17T02:15:53;8.27;;;4.37;;
11123;SDS011;5616;42.692;23.312;2023-08-17T02:18:19;8.43;;;4.43;;
11123;SDS011;5616;42.692;23.312;2023-08-17T02:20:46;8.97;;;4.13;;
11123;SDS011;5616;42.692;23.312;2023-08-17T02:23:13;6.70;;;3.80;;
11123;SDS011;5616;42.692;23.312;2023-08-17T02:25:40;8.80;;;4.23;;
11123;SDS011;5616;42.692;23.312;2023-08-17T02:28:07;7.10;;;4.23;;
11123;SDS011;5616;42.692;23.312;2023-08-17T02:30:35;7.43;;;4.10;;
11123;SDS011;5616;42.692;23.312;2023-08-17T02:33:02;8.07;;;4.30;;
11123;SDS011;5616;42.692;23.312;2023-08-17T02:35:29;8.80;;;4.23;;
11123;SDS011;5616;42.692;23.312;2023-08-17T02:37:57;9.80;;;3.90;;
11123;SDS011;5616;42.692;23.312;2023-08-17T02:40:24;8.37;;;3.97;;
11123;SDS011;5616;42.692;23.312;2023-08-17T02:42:51;7.13;;;4.27;;
11123;SDS011;5616;42.692;23.312;2023-08-17T02:45:17;6.07;;;4.30;;
11123;SDS011;5616;42.692;23.312;2023-08-17T02:47:46;7.57;;;4.17;;
11123;SDS011;5616;42.692;23.312;2023-08-17T02:50:14;5.57;;;4.13;;
11123;SDS011;5616;42.692;23.312;2023-08-17T02:52:42;7.63;;;3.87;;
11123;SDS011;5616;42.692;23.312;2023-08-17T02:55:09;8.70;;;4.30;;
11123;SDS011;5616;42.692;23.312;2023-08-17T02:57:36;9.20;;;4.20;;
11123;SDS011;5616;42.692;23.312;2023-08-17T03:00:03;5.57;;;3.90;;
11123;SDS011;5616;42.692;23.312;2023-08-17T03:02:32;9.67;;;4.13;;
11123;SDS011;5616;42.692;23.312;2023-08-17T03:05:02;7.63;;;3.80;;
11123;SDS011;5616;42.692;23.312;2023-08-17T03:07:29;7.97;;;3.97;;
11123;SDS011;5616;42.692;23.312;2023-08-17T03:09:56;8.13;;;4.00;;
11123;SDS011;5616;42.692;23.312;2023-08-17T03:12:23;4.80;;;4.03;;
11123;SDS011;5616;42.692;23.312;2023-08-17T03:14:50;7.80;;;4.03;;
11123;SDS011;5616;42.692;23.312;2023-08-17T03:17:17;6.97;;;4.10;;
11123;SDS011;5616;42.692;23.312;2023-08-17T03:19:44;9.53;;;4.10;;
11123;SDS011;5616;42.692;23.312;2023-08-17T03:22:12;7.23;;;4.27;;
11123;SDS011;5616;42.692;23.312;2023-08-17T03:24:39;8.07;;;3.70;;
11123;SDS011;5616;42.692;23.312;2023-08-17T03:27:06;6.27;;;3.80;;
11123;SDS011;5616;42.692;23.312;2023-08-17T03:29:33;6.80;;;4.03;;
11123;SDS011;5616;42.692;23.312;2023-08-17T03:32:00;6.97;;;3.93;;
11123;SDS011;5616;42.692;23.312;2023-08-17T03:34:27;5.53;;;3.93;;
11123;SDS011;5616;42.692;23.312;2023-08-17T03:36:54;6.70;;;4.03;;
11123;SDS011;5616;42.692;23.312;2023-08-17T03:39:22;5.93;;;4.07;;
11123;SDS011;5616;42.692;23.312;2023-08-17T03:41:49;5.13;;;3.67;;
11123;SDS011;5616;42.692;23.312;2023-08-17T03:44:16;4.87;;;4.13;;
11123;SDS011;5616;42.692;23.312;2023-08-17T03:46:43;6.67;;;3.90;;
11123;SDS011;5616;42.692;23.312;2023-08-17T03:49:10;8.07;;;4.40;;
11123;SDS011;5616;42.692;23.312;2023-08-17T03:51:37;4.87;;;3.63;;
11123;SDS011;5616;42.692;23.312;2023-08-17T03:54:04;7.30;;;4.07;;
11123;SDS011;5616;42.692;23.312;2023-08-17T03:56:32;5.93;;;3.47;;
11123;SDS011;5616;42.692;23.312;2023-08-17T03:58:59;8.17;;;3.83;;
11123;SDS011;5616;42.692;23.312;2023-08-17T04:01:26;5.93;;;3.73;;
11123;SDS011;5616;42.692;23.312;2023-08-17T04:03:54;6.67;;;3.63;;
11123;SDS011;5616;42.692;23.312;2023-08-17T04:06:22;5.33;;;3.87;;
11123;SDS011;5616;42.692;23.312;2023-08-17T04:08:48;6.83;;;3.57;;
11123;SDS011;5616;42.692;23.312;2023-08-17T04:11:15;6.87;;;3.70;;
11123;SDS011;5616;42.692;23.312;2023-08-17T04:13:44;7.90;;;3.40;;
11123;SDS011;5616;42.692;23.312;2023-08-17T04:16:10;8.03;;;4.20;;
11123;SDS011;5616;42.692;23.312;2023-08-17T04:18:37;7.30;;;3.80;;
11123;SDS011;5616;42.692;23.312;2023-08-17T04:21:04;6.47;;;4.10;;
11123;SDS011;5616;42.692;23.312;2023-08-17T04:23:31;5.30;;;3.90;;
11123;SDS011;5616;42.692;23.312;2023-08-17T04:25:58;6.20;;;3.93;;
11123;SDS011;5616;42.692;23.312;2023-08-17T04:28:27;7.40;;;4.33;;
11123;SDS011;5616;42.692;23.312;2023-08-17T04:30:56;8.33;;;4.30;;
11123;SDS011;5616;42.692;23.312;2023-08-17T04:33:25;7.93;;;4.43;;
11123;SDS011;5616;42.692;23.312;2023-08-17T04:35:52;9.77;;;4.67;;
11123;SDS011;5616;42.692;23.312;2023-08-17T04:38:19;8.40;;;4.00;;
11123;SDS011;5616;42.692;23.312;2023-08-17T04:40:46;8.67;;;4.77;;
11123;SDS011;5616;42.692;23.312;2023-08-17T04:43:13;10.50;;;4.80;;
11123;SDS011;5616;42.692;23.312;2023-08-17T04:45:40;10.90;;;5.93;;
11123;SDS011;5616;42.692;23.312;2023-08-17T04:48:08;11.00;;;5.80;;
11123;SDS011;5616;42.692;23.312;2023-08-17T04:50:35;7.43;;;5.33;;
11123;SDS011;5616;42.692;23.312;2023-08-17T04:53:03;13.87;;;5.77;;
11123;SDS011;5616;42.692;23.312;2023-08-17T04:55:30;13.53;;;5.03;;
11123;SDS011;5616;42.692;23.312;2023-08-17T04:57:58;8.97;;;4.97;;
11123;SDS011;5616;42.692;23.312;2023-08-17T05:00:25;9.23;;;5.60;;
11123;SDS011;5616;42.692;23.312;2023-08-17T05:02:54;10.33;;;4.87;;
11123;SDS011;5616;42.692;23.312;2023-08-17T05:05:25;9.13;;;5.43;;
11123;SDS011;5616;42.692;23.312;2023-08-17T05:07:52;7.73;;;4.93;;
11123;SDS011;5616;42.692;23.312;2023-08-17T05:10:19;8.83;;;4.60;;
11123;SDS011;5616;42.692;23.312;2023-08-17T05:12:46;11.07;;;5.03;;
11123;SDS011;5616;42.692;23.312;2023-08-17T05:15:13;13.77;;;5.83;;
11123;SDS011;5616;42.692;23.312;2023-08-17T05:17:40;18.57;;;9.33;;
11123;SDS011;5616;42.692;23.312;2023-08-17T05:20:10;29.47;;;13.10;;
11123;SDS011;5616;42.692;23.312;2023-08-17T05:22:40;25.80;;;13.23;;
11123;SDS011;5616;42.692;23.312;2023-08-17T05:25:07;18.37;;;9.80;;
11123;SDS011;5616;42.692;23.312;2023-08-17T05:27:36;9.90;;;6.20;;
11123;SDS011;5616;42.692;23.312;2023-08-17T05:30:05;8.03;;;5.50;;
11123;SDS011;5616;42.692;23.312;2023-08-17T05:32:33;9.93;;;4.90;;
11123;SDS011;5616;42.692;23.312;2023-08-17T05:35:00;8.13;;;4.40;;
11123;SDS011;5616;42.692;23.312;2023-08-17T05:37:27;5.67;;;3.97;;
11123;SDS011;5616;42.692;23.312;2023-08-17T05:39:55;5.30;;;3.70;;
11123;SDS011;5616;42.692;23.312;2023-08-17T05:42:22;10.63;;;4.03;;
11123;SDS011;5616;42.692;23.312;2023-08-17T05:44:49;10.90;;;3.60;;
11123;SDS011;5616;42.692;23.312;2023-08-17T05:47:16;6.57;;;4.03;;
11123;SDS011;5616;42.692;23.312;2023-08-17T05:49:44;5.07;;;3.50;;
11123;SDS011;5616;42.692;23.312;2023-08-17T05:52:11;11.37;;;4.40;;
11123;SDS011;5616;42.692;23.312;2023-08-17T05:54:38;12.63;;;4.23;;
11123;SDS011;5616;42.692;23.312;2023-08-17T05:57:07;7.77;;;3.83;;
11123;SDS011;5616;42.692;23.312;2023-08-17T05:59:33;7.80;;;4.00;;
11123;SDS011;5616;42.692;23.312;2023-08-17T06:02:00;5.33;;;3.77;;
11123;SDS011;5616;42.692;23.312;2023-08-17T06:04:27;7.22;;;4.00;;
11123;SDS011;5616;42.692;23.312;2023-08-17T06:06:54;8.80;;;4.28;;
11123;SDS011;5616;42.692;23.312;2023-08-17T06:09:21;10.30;;;4.80;;
11123;SDS011;5616;42.692;23.312;2023-08-17T06:11:48;6.93;;;4.20;;
11123;SDS011;5616;42.692;23.312;2023-08-17T06:14:16;9.43;;;4.75;;
11123;SDS011;5616;42.692;23.312;2023-08-17T06:16:43;8.05;;;4.30;;
11123;SDS011;5616;42.692;23.312;2023-08-17T06:19:10;10.10;;;4.90;;
11123;SDS011;5616;42.692;23.312;2023-08-17T06:21:37;9.98;;;5.40;;
11123;SDS011;5616;42.692;23.312;2023-08-17T06:24:04;6.22;;;4.88;;
11123;SDS011;5616;42.692;23.312;2023-08-17T06:26:31;7.53;;;4.97;;
11123;SDS011;5616;42.692;23.312;2023-08-17T06:28:58;10.38;;;5.90;;
11123;SDS011;5616;42.692;23.312;2023-08-17T06:31:26;9.10;;;5.43;;
11123;SDS011;5616;42.692;23.312;2023-08-17T06:33:53;10.75;;;5.05;;
11123;SDS011;5616;42.692;23.312;2023-08-17T06:36:20;9.18;;;5.20;;
11123;SDS011;5616;42.692;23.312;2023-08-17T06:38:47;9.93;;;5.65;;
11123;SDS011;5616;42.692;23.312;2023-08-17T06:41:15;7.00;;;5.43;;
11123;SDS011;5616;42.692;23.312;2023-08-17T06:43:42;7.43;;;5.22;;
11123;SDS011;5616;42.692;23.312;2023-08-17T06:46:09;9.63;;;5.53;;
11123;SDS011;5616;42.692;23.312;2023-08-17T06:48:37;8.77;;;5.30;;
11123;SDS011;5616;42.692;23.312;2023-08-17T06:51:04;8.57;;;4.90;;
11123;SDS011;5616;42.692;23.312;2023-08-17T06:53:31;10.48;;;5.35;;
11123;SDS011;5616;42.692;23.312;2023-08-17T06:55:58;9.32;;;5.45;;
11123;SDS011;5616;42.692;23.312;2023-08-17T06:58:25;5.93;;;4.60;;
11123;SDS011;5616;42.692;23.312;2023-08-17T07:00:52;12.27;;;5.32;;
11123;SDS011;5616;42.692;23.312;2023-08-17T07:03:19;6.00;;;4.63;;
11123;SDS011;5616;42.692;23.312;2023-08-17T07:05:48;6.97;;;4.18;;
11123;SDS011;5616;42.692;23.312;2023-08-17T07:08:14;9.38;;;4.20;;
11123;SDS011;5616;42.692;23.312;2023-08-17T07:10:42;11.07;;;4.38;;
11123;SDS011;5616;42.692;23.312;2023-08-17T07:13:09;5.95;;;4.10;;
11123;SDS011;5616;42.692;23.312;2023-08-17T07:15:35;11.00;;;4.20;;
11123;SDS011;5616;42.692;23.312;2023-08-17T07:18:03;6.50;;;3.67;;
11123;SDS011;5616;42.692;23.312;2023-08-17T07:20:30;8.63;;;3.20;;
11123;SDS011;5616;42.692;23.312;2023-08-17T07:22:58;4.57;;;3.13;;
11123;SDS011;5616;42.692;23.312;2023-08-17T07:25:25;5.68;;;3.53;;
11123;SDS011;5616;42.692;23.312;2023-08-17T07:27:52;4.55;;;3.40;;
11123;SDS011;5616;42.692;23.312;2023-08-17T07:30:18;3.97;;;3.40;;
11123;SDS011;5616;42.692;23.312;2023-08-17T07:32:46;11.05;;;3.35;;
11123;SDS011;5616;42.692;23.312;2023-08-17T07:35:13;7.25;;;3.47;;
11123;SDS011;5616;42.692;23.312;2023-08-17T07:37:40;7.55;;;3.53;;
11123;SDS011;5616;42.692;23.312;2023-08-17T07:40:08;5.55;;;3.40;;
11123;SDS011;5616;42.692;23.312;2023-08-17T07:42:37;6.20;;;3.20;;
11123;SDS011;5616;42.692;23.312;2023-08-17T07:45:04;4.97;;;3.50;;
11123;SDS011;5616;42.692;23.312;2023-08-17T07:47:33;7.93;;;3.72;;
11123;SDS011;5616;42.692;23.312;2023-08-17T07:50:01;5.47;;;3.88;;
11123;SDS011;5616;42.692;23.312;2023-08-17T07:52:28;10.35;;;3.78;;
11123;SDS011;5616;42.692;23.312;2023-08-17T07:54:55;7.80;;;4.60;;
11123;SDS011;5616;42.692;23.312;2023-08-17T07:57:23;5.40;;;4.20;;
11123;SDS011;5616;42.692;23.312;2023-08-17T07:59:50;8.20;;;5.10;;
11123;SDS011;5616;42.692;23.312;2023-08-17T08:02:20;5.50;;;4.05;;
11123;SDS011;5616;42.692;23.312;2023-08-17T08:04:47;4.25;;;3.20;;
11123;SDS011;5616;42.692;23.312;2023-08-17T08:07:13;12.88;;;6.38;;
11123;SDS011;5616;42.692;23.312;2023-08-17T08:09:40;5.50;;;3.53;;
11123;SDS011;5616;42.692;23.312;2023-08-17T08:12:07;6.53;;;3.42;;
11123;SDS011;5616;42.692;23.312;2023-08-17T08:14:35;4.93;;;3.00;;
11123;SDS011;5616;42.692;23.312;2023-08-17T08:17:02;8.27;;;3.22;;
11123;SDS011;5616;42.692;23.312;2023-08-17T08:19:29;3.92;;;3.08;;
11123;SDS011;5616;42.692;23.312;2023-08-17T08:21:57;4.55;;;2.90;;
11123;SDS011;5616;42.692;23.312;2023-08-17T08:24:24;5.03;;;3.05;;
11123;SDS011;5616;42.692;23.312;2023-08-17T08:26:56;4.32;;;2.90;;
11123;SDS011;5616;42.692;23.312;2023-08-17T08:29:23;5.15;;;2.80;;
11123;SDS011;5616;42.692;23.312;2023-08-17T08:31:51;4.47;;;2.92;;
11123;SDS011;5616;42.692;23.312;2023-08-17T08:34:18;3.10;;;2.58;;
11123;SDS011;5616;42.692;23.312;2023-08-17T08:36:45;4.53;;;2.80;;
11123;SDS011;5616;42.692;23.312;2023-08-17T08:39:14;4.35;;;2.40;;
11123;SDS011;5616;42.692;23.312;2023-08-17T08:41:40;4.88;;;3.47;;
11123;SDS011;5616;42.692;23.312;2023-08-17T08:44:07;8.38;;;4.30;;
11123;SDS011;5616;42.692;23.312;2023-08-17T08:46:34;14.52;;;8.07;;
11123;SDS011;5616;42.692;23.312;2023-08-17T08:49:07;9.85;;;5.90;;
11123;SDS011;5616;42.692;23.312;2023-08-17T08:51:37;9.75;;;5.03;;
11123;SDS011;5616;42.692;23.312;2023-08-17T08:54:08;5.03;;;3.15;;
11123;SDS011;5616;42.692;23.312;2023-08-17T08:56:40;12.13;;;4.47;;
11123;SDS011;5616;42.692;23.312;2023-08-17T08:59:09;9.68;;;3.90;;
11123;SDS011;5616;42.692;23.312;2023-08-17T09:01:37;11.80;;;5.85;;
11123;SDS011;5616;42.692;23.312;2023-08-17T09:04:05;7.28;;;5.50;;
11123;SDS011;5616;42.692;23.312;2023-08-17T09:06:33;7.20;;;4.50;;
11123;SDS011;5616;42.692;23.312;2023-08-17T09:09:01;3.72;;;2.60;;
11123;SDS011;5616;42.692;23.312;2023-08-17T09:11:29;5.40;;;3.10;;
11123;SDS011;5616;42.692;23.312;2023-08-17T09:13:56;4.45;;;2.60;;
11123;SDS011;5616;42.692;23.312;2023-08-17T09:16:23;5.40;;;3.03;;
11123;SDS011;5616;42.692;23.312;2023-08-17T09:18:51;3.70;;;3.10;;
11123;SDS011;5616;42.692;23.312;2023-08-17T09:21:20;3.55;;;2.60;;
11123;SDS011;5616;42.692;23.312;2023-08-17T09:23:51;4.80;;;3.47;;
11123;SDS011;5616;42.692;23.312;2023-08-17T09:26:19;5.15;;;2.80;;
11123;SDS011;5616;42.692;23.312;2023-08-17T09:28:47;6.20;;;3.65;;
11123;SDS011;5616;42.692;23.312;2023-08-17T09:31:14;4.43;;;3.40;;
11123;SDS011;5616;42.692;23.312;2023-08-17T09:33:41;9.25;;;5.45;;
11123;SDS011;5616;42.692;23.312;2023-08-17T09:36:09;7.00;;;4.45;;
11123;SDS011;5616;42.692;23.312;2023-08-17T09:38:38;7.13;;;4.35;;
11123;SDS011;5616;42.692;23.312;2023-08-17T09:41:06;7.88;;;3.10;;
11123;SDS011;5616;42.692;23.312;2023-08-17T09:43:33;5.95;;;3.63;;
11123;SDS011;5616;42.692;23.312;2023-08-17T09:46:00;4.55;;;3.00;;
11123;SDS011;5616;42.692;23.312;2023-08-17T09:48:28;5.03;;;3.00;;
11123;SDS011;5616;42.692;23.312;2023-08-17T09:50:56;6.78;;;3.72;;
11123;SDS011;5616;42.692;23.312;2023-08-17T09:53:23;12.10;;;5.85;;
11123;SDS011;5616;42.692;23.312;2023-08-17T09:55:50;7.53;;;5.43;;
11123;SDS011;5616;42.692;23.312;2023-08-17T09:58:21;20.90;;;10.18;;
11123;SDS011;5616;42.692;23.312;2023-08-17T10:00:49;10.10;;;4.13;;
11123;SDS011;5616;42.692;23.312;2023-08-17T10:03:17;6.82;;;4.32;;
11123;SDS011;5616;42.692;23.312;2023-08-17T10:05:46;10.27;;;6.47;;
11123;SDS011;5616;42.692;23.312;2023-08-17T10:08:19;9.95;;;6.55;;
11123;SDS011;5616;42.692;23.312;2023-08-17T10:10:47;10.73;;;5.78;;
11123;SDS011;5616;42.692;23.312;2023-08-17T10:13:16;4.72;;;2.60;;
11123;SDS011;5616;42.692;23.312;2023-08-17T10:15:55;9.63;;;4.65;;
11123;SDS011;5616;42.692;23.312;2023-08-17T10:18:29;14.20;;;7.68;;
11123;SDS011;5616;42.692;23.312;2023-08-17T10:21:02;10.73;;;6.15;;
11123;SDS011;5616;42.692;23.312;2023-08-17T10:23:33;5.20;;;3.28;;
11123;SDS011;5616;42.692;23.312;2023-08-17T10:26:01;8.38;;;5.43;;
11123;SDS011;5616;42.692;23.312;2023-08-17T10:28:30;7.20;;;4.35;;
11123;SDS011;5616;42.692;23.312;2023-08-17T10:30:58;3.85;;;2.47;;
11123;SDS011;5616;42.692;23.312;2023-08-17T10:33:25;2.97;;;2.75;;
11123;SDS011;5616;42.692;23.312;2023-08-17T10:35:54;8.50;;;4.60;;
11123;SDS011;5616;42.692;23.312;2023-08-17T10:38:22;14.30;;;8.18;;
11123;SDS011;5616;42.692;23.312;2023-08-17T10:41:07;8.50;;;3.63;;
11123;SDS011;5616;42.692;23.312;2023-08-17T10:43:39;5.38;;;2.85;;
11123;SDS011;5616;42.692;23.312;2023-08-17T10:46:19;3.65;;;2.53;;
11123;SDS011;5616;42.692;23.312;2023-08-17T10:48:46;5.13;;;2.55;;
11123;SDS011;5616;42.692;23.312;2023-08-17T10:51:13;5.45;;;2.42;;
11123;SDS011;5616;42.692;23.312;2023-08-17T10:53:42;2.95;;;2.22;;
11123;SDS011;5616;42.692;23.312;2023-08-17T10:56:11;4.93;;;2.25;;
11123;SDS011;5616;42.692;23.312;2023-08-17T10:58:40;3.38;;;2.45;;
11123;SDS011;5616;42.692;23.312;2023-08-17T11:01:09;5.47;;;2.50;;
11123;SDS011;5616;42.692;23.312;2023-08-17T11:03:36;3.25;;;2.58;;
11123;SDS011;5616;42.692;23.312;2023-08-17T11:08:52;5.55;;;2.35;;
11123;SDS011;5616;42.692;23.312;2023-08-17T11:11:21;7.13;;;2.75;;
11123;SDS011;5616;42.692;23.312;2023-08-17T11:13:50;5.45;;;2.70;;
11123;SDS011;5616;42.692;23.312;2023-08-17T11:16:18;7.10;;;2.80;;
11123;SDS011;5616;42.692;23.312;2023-08-17T11:18:45;3.20;;;2.58;;
11123;SDS011;5616;42.692;23.312;2023-08-17T11:21:14;4.72;;;2.60;;
11123;SDS011;5616;42.692;23.312;2023-08-17T11:23:41;5.57;;;3.28;;
11123;SDS011;5616;42.692;23.312;2023-08-17T11:26:08;8.25;;;4.00;;
11123;SDS011;5616;42.692;23.312;2023-08-17T11:28:35;8.43;;;4.15;;
11123;SDS011;5616;42.692;23.312;2023-08-17T11:31:05;6.47;;;3.60;;
11123;SDS011;5616;42.692;23.312;2023-08-17T11:33:35;13.75;;;8.25;;
11123;SDS011;5616;42.692;23.312;2023-08-17T11:36:03;5.13;;;4.05;;
11123;SDS011;5616;42.692;23.312;2023-08-17T11:38:31;8.27;;;5.53;;
11123;SDS011;5616;42.692;23.312;2023-08-17T11:40:59;7.32;;;5.00;;
11123;SDS011;5616;42.692;23.312;2023-08-17T11:43:26;4.28;;;3.47;;
11123;SDS011;5616;42.692;23.312;2023-08-17T11:45:54;8.50;;;5.25;;
11123;SDS011;5616;42.692;23.312;2023-08-17T11:48:23;12.98;;;6.68;;
11123;SDS011;5616;42.692;23.312;2023-08-17T11:50:51;4.40;;;2.53;;
11123;SDS011;5616;42.692;23.312;2023-08-17T11:53:18;6.05;;;3.08;;
11123;SDS011;5616;42.692;23.312;2023-08-17T11:55:45;7.80;;;5.13;;
11123;SDS011;5616;42.692;23.312;2023-08-17T11:58:12;3.22;;;2.50;;
11123;SDS011;5616;42.692;23.312;2023-08-17T12:00:39;10.77;;;3.17;;
11123;SDS011;5616;42.692;23.312;2023-08-17T12:03:12;4.63;;;2.50;;
11123;SDS011;5616;42.692;23.312;2023-08-17T12:05:41;8.07;;;2.90;;
11123;SDS011;5616;42.692;23.312;2023-08-17T12:08:09;3.70;;;2.60;;
11123;SDS011;5616;42.692;23.312;2023-08-17T12:10:36;7.75;;;4.65;;
11123;SDS011;5616;42.692;23.312;2023-08-17T12:13:04;8.48;;;5.60;;
11123;SDS011;5616;42.692;23.312;2023-08-17T12:15:31;7.20;;;3.05;;
11123;SDS011;5616;42.692;23.312;2023-08-17T12:17:59;11.20;;;6.72;;
11123;SDS011;5616;42.692;23.312;2023-08-17T12:20:26;7.30;;;5.25;;
11123;SDS011;5616;42.692;23.312;2023-08-17T12:22:56;4.68;;;2.63;;
11123;SDS011;5616;42.692;23.312;2023-08-17T12:25:23;7.10;;;4.38;;
11123;SDS011;5616;42.692;23.312;2023-08-17T12:27:51;11.63;;;6.10;;
11123;SDS011;5616;42.692;23.312;2023-08-17T12:30:24;16.65;;;9.35;;
11123;SDS011;5616;42.692;23.312;2023-08-17T12:32:53;12.05;;;6.38;;
11123;SDS011;5616;42.692;23.312;2023-08-17T12:35:19;9.15;;;3.60;;
11123;SDS011;5616;42.692;23.312;2023-08-17T12:37:49;5.97;;;3.42;;
11123;SDS011;5616;42.692;23.312;2023-08-17T12:40:17;3.55;;;3.22;;
11123;SDS011;5616;42.692;23.312;2023-08-17T12:42:44;8.90;;;3.85;;
11123;SDS011;5616;42.692;23.312;2023-08-17T12:45:10;7.05;;;3.75;;
11123;SDS011;5616;42.692;23.312;2023-08-17T12:47:37;8.48;;;4.00;;
11123;SDS011;5616;42.692;23.312;2023-08-17T12:50:04;7.82;;;3.40;;
11123;SDS011;5616;42.692;23.312;2023-08-17T12:52:32;6.22;;;3.75;;
11123;SDS011;5616;42.692;23.312;2023-08-17T12:54:59;6.15;;;3.88;;
11123;SDS011;5616;42.692;23.312;2023-08-17T12:57:27;10.73;;;4.07;;
11123;SDS011;5616;42.692;23.312;2023-08-17T12:59:54;6.05;;;3.83;;
11123;SDS011;5616;42.692;23.312;2023-08-17T13:02:21;8.65;;;4.20;;
11123;SDS011;5616;42.692;23.312;2023-08-17T13:04:47;9.15;;;4.00;;
11123;SDS011;5616;42.692;23.312;2023-08-17T13:07:14;11.00;;;3.85;;
11123;SDS011;5616;42.692;23.312;2023-08-17T13:09:42;6.25;;;3.95;;
11123;SDS011;5616;42.692;23.312;2023-08-17T13:12:11;6.45;;;3.63;;
11123;SDS011;5616;42.692;23.312;2023-08-17T13:14:39;7.50;;;3.85;;
11123;SDS011;5616;42.692;23.312;2023-08-17T13:17:06;5.07;;;3.53;;
11123;SDS011;5616;42.692;23.312;2023-08-17T13:19:32;5.03;;;3.75;;
11123;SDS011;5616;42.692;23.312;2023-08-17T13:21:59;10.80;;;3.70;;
11123;SDS011;5616;42.692;23.312;2023-08-17T13:24:27;8.10;;;3.80;;
11123;SDS011;5616;42.692;23.312;2023-08-17T13:26:55;3.80;;;3.40;;
11123;SDS011;5616;42.692;23.312;2023-08-17T13:29:22;7.55;;;3.45;;
11123;SDS011;5616;42.692;23.312;2023-08-17T13:31:50;5.95;;;3.92;;
11123;SDS011;5616;42.692;23.312;2023-08-17T13:34:17;5.93;;;3.83;;
11123;SDS011;5616;42.692;23.312;2023-08-17T13:36:44;6.00;;;3.72;;
11123;SDS011;5616;42.692;23.312;2023-08-17T13:39:11;8.63;;;3.80;;
11123;SDS011;5616;42.692;23.312;2023-08-17T13:41:38;6.80;;;3.65;;
11123;SDS011;5616;42.692;23.312;2023-08-17T13:44:05;5.80;;;3.35;;
11123;SDS011;5616;42.692;23.312;2023-08-17T13:46:32;7.13;;;3.33;;
11123;SDS011;5616;42.692;23.312;2023-08-17T13:49:01;5.00;;;3.22;;
11123;SDS011;5616;42.692;23.312;2023-08-17T13:51:27;4.00;;;3.58;;
11123;SDS011;5616;42.692;23.312;2023-08-17T13:53:54;6.70;;;3.60;;
11123;SDS011;5616;42.692;23.312;2023-08-17T13:56:21;5.22;;;3.40;;
11123;SDS011;5616;42.692;23.312;2023-08-17T13:58:48;4.40;;;3.40;;
11123;SDS011;5616;42.692;23.312;2023-08-17T14:01:15;6.82;;;3.88;;
11123;SDS011;5616;42.692;23.312;2023-08-17T14:03:42;5.80;;;3.55;;
11123;SDS011;5616;42.692;23.312;2023-08-17T14:06:10;6.30;;;3.70;;
11123;SDS011;5616;42.692;23.312;2023-08-17T14:08:37;5.10;;;3.35;;
11123;SDS011;5616;42.692;23.312;2023-08-17T14:11:04;4.72;;;3.40;;
11123;SDS011;5616;42.692;23.312;2023-08-17T14:13:31;5.28;;;3.40;;
11123;SDS011;5616;42.692;23.312;2023-08-17T14:15:59;8.38;;;4.13;;
11123;SDS011;5616;42.692;23.312;2023-08-17T14:18:26;4.57;;;3.47;;
11123;SDS011;5616;42.692;23.312;2023-08-17T14:20:53;5.40;;;3.33;;
11123;SDS011;5616;42.692;23.312;2023-08-17T14:23:21;6.53;;;3.33;;
11123;SDS011;5616;42.692;23.312;2023-08-17T14:25:48;4.32;;;2.88;;
11123;SDS011;5616;42.692;23.312;2023-08-17T14:28:17;8.52;;;3.67;;
11123;SDS011;5616;42.692;23.312;2023-08-17T14:30:43;6.78;;;3.88;;
11123;SDS011;5616;42.692;23.312;2023-08-17T14:33:10;3.30;;;2.85;;
11123;SDS011;5616;42.692;23.312;2023-08-17T14:35:38;5.50;;;3.25;;
11123;SDS011;5616;42.692;23.312;2023-08-17T14:38:05;5.93;;;3.38;;
11123;SDS011;5616;42.692;23.312;2023-08-17T14:40:35;8.55;;;3.50;;
11123;SDS011;5616;42.692;23.312;2023-08-17T14:43:02;3.88;;;3.20;;
11123;SDS011;5616;42.692;23.312;2023-08-17T14:45:29;9.65;;;3.58;;
11123;SDS011;5616;42.692;23.312;2023-08-17T14:47:56;5.07;;;3.40;;
11123;SDS011;5616;42.692;23.312;2023-08-17T14:50:24;4.57;;;3.10;;
11123;SDS011;5616;42.692;23.312;2023-08-17T14:52:51;5.05;;;3.47;;